createdAt,value
2022-10-31T00:00:31.621Z,101969.66
2022-10-31T00:03:00.093Z,101973.53
2022-10-31T00:05:26.861Z,101971.38
2022-10-31T00:07:53.773Z,101971.94
2022-10-31T00:10:20.384Z,101974.16
2022-10-31T00:12:47.063Z,101965.47
2022-10-31T00:15:14.192Z,101971.00
2022-10-31T00:17:41.037Z,101971.34
2022-10-31T00:20:10.491Z,101975.22
2022-10-31T00:22:37.200Z,101970.03
2022-10-31T00:25:04.335Z,101968.53
2022-10-31T00:27:32.495Z,101974.28
2022-10-31T00:29:59.412Z,101968.44
2022-10-31T00:32:26.078Z,101974.00
2022-10-31T00:34:52.978Z,101976.84
2022-10-31T00:37:23.597Z,101974.50
2022-10-31T00:39:50.583Z,101977.56
2022-10-31T00:42:17.327Z,101970.72
2022-10-31T00:44:43.950Z,101978.09
2022-10-31T00:47:10.556Z,101978.28
2022-10-31T00:49:37.237Z,101981.13
2022-10-31T00:52:03.976Z,101983.97
2022-10-31T00:54:31.962Z,101981.47
2022-10-31T00:56:58.833Z,101983.31
2022-10-31T00:59:25.507Z,101984.69
2022-10-31T01:01:52.314Z,101976.84
2022-10-31T01:04:19.085Z,101981.53
2022-10-31T01:06:45.731Z,101980.91
2022-10-31T01:09:12.462Z,101982.91
2022-10-31T01:11:40.468Z,101973.41
2022-10-31T01:14:08.778Z,101974.59
2022-10-31T01:16:35.636Z,101973.94
2022-10-31T01:19:03.367Z,101968.09
2022-10-31T01:21:30.661Z,101978.34
2022-10-31T01:23:57.868Z,101977.84
2022-10-31T01:26:26.560Z,101977.00
2022-10-31T01:28:56.389Z,101981.72
2022-10-31T01:31:26.694Z,101977.38
2022-10-31T01:33:54.422Z,101979.22
2022-10-31T01:36:23.443Z,101981.38
2022-10-31T01:38:51.154Z,101971.06
2022-10-31T01:41:19.824Z,101972.25
2022-10-31T01:43:50.225Z,101964.78
2022-10-31T01:46:21.493Z,101959.13
2022-10-31T01:48:49.301Z,101955.50
2022-10-31T01:51:18.581Z,101952.16
2022-10-31T01:53:47.346Z,101947.16
2022-10-31T01:56:15.115Z,101952.03
2022-10-31T01:58:42.924Z,101944.84
2022-10-31T02:01:09.881Z,101961.50
2022-10-31T02:03:38.330Z,101957.22
2022-10-31T02:06:11.650Z,101964.84
2022-10-31T02:08:40.134Z,101978.03
2022-10-31T02:11:08.530Z,101969.19
2022-10-31T02:13:35.457Z,101970.56
2022-10-31T02:16:02.078Z,101961.06
2022-10-31T02:18:31.710Z,101964.88
2022-10-31T02:21:12.006Z,101961.59
2022-10-31T02:24:27.070Z,101965.09
2022-10-31T02:27:34.219Z,101969.59
2022-10-31T02:30:07.310Z,101965.25
2022-10-31T02:32:46.258Z,101967.25
2022-10-31T02:35:20.938Z,101969.09
2022-10-31T02:37:58.243Z,101971.94
2022-10-31T02:40:28.516Z,101976.81
2022-10-31T02:43:04.094Z,101976.81
2022-10-31T02:45:38.967Z,101966.13
2022-10-31T02:48:12.053Z,101966.47
2022-10-31T02:50:47.007Z,101962.31
2022-10-31T02:53:16.245Z,101960.78
2022-10-31T02:55:52.249Z,101964.47
2022-10-31T02:58:23.073Z,101963.63
2022-10-31T03:01:03.508Z,101962.63
2022-10-31T03:03:38.445Z,101959.28
2022-10-31T03:06:13.582Z,101960.13
2022-10-31T03:08:48.204Z,101961.13
2022-10-31T03:11:15.723Z,101965.81
2022-10-31T03:13:50.884Z,101968.50
2022-10-31T03:16:24.738Z,101967.81
2022-10-31T03:18:57.531Z,101959.97
2022-10-31T03:21:29.844Z,101960.34
2022-10-31T03:23:58.570Z,101954.66
2022-10-31T03:26:26.716Z,101964.03
2022-10-31T03:28:58.090Z,101972.38
2022-10-31T03:31:30.556Z,101971.72
2022-10-31T03:34:01.850Z,101970.22
2022-10-31T03:36:31.460Z,101974.22
2022-10-31T03:39:00.936Z,101972.25
2022-10-31T03:41:32.710Z,101972.75
2022-10-31T03:44:04.992Z,101964.94
2022-10-31T03:46:31.855Z,101968.78
2022-10-31T03:49:00.559Z,101972.63
2022-10-31T03:51:35.526Z,101963.94
2022-10-31T03:54:10.148Z,101973.13
2022-10-31T03:56:41.240Z,101972.47
2022-10-31T03:59:17.317Z,101979.13
2022-10-31T04:01:48.346Z,101981.97
2022-10-31T04:04:16.970Z,101975.97
2022-10-31T04:06:45.434Z,101972.63
2022-10-31T04:09:13.148Z,101972.16
2022-10-31T04:11:45.635Z,101974.16
2022-10-31T04:14:13.076Z,101967.66
2022-10-31T04:16:45.308Z,101969.81
2022-10-31T04:19:13.135Z,101973.81
2022-10-31T04:21:44.246Z,101967.97
2022-10-31T04:24:11.119Z,101966.50
2022-10-31T04:26:38.238Z,101967.50
2022-10-31T04:29:05.137Z,101964.16
2022-10-31T04:31:31.757Z,101955.47
2022-10-31T04:33:58.573Z,101958.50
2022-10-31T04:36:25.318Z,101961.34
2022-10-31T04:38:53.486Z,101958.81
2022-10-31T04:41:20.159Z,101964.31
2022-10-31T04:43:46.792Z,101960.00
2022-10-31T04:46:13.691Z,101960.16
2022-10-31T04:48:40.386Z,101963.00
2022-10-31T04:51:08.253Z,101961.47
2022-10-31T04:53:35.023Z,101959.16
2022-10-31T04:56:03.131Z,101959.50
2022-10-31T04:58:30.154Z,101960.47
2022-10-31T05:00:57.444Z,101964.34
2022-10-31T05:03:24.493Z,101964.66
2022-10-31T05:05:57.712Z,101957.84
2022-10-31T05:08:24.433Z,101957.16
2022-10-31T05:10:51.136Z,101959.00
2022-10-31T05:15:46.590Z,101961.47
2022-10-31T05:18:13.298Z,101959.81
2022-10-31T05:20:40.003Z,101951.81
2022-10-31T05:23:06.787Z,101944.13
2022-10-31T05:25:33.568Z,101947.81
2022-10-31T05:28:00.688Z,101935.47
2022-10-31T05:30:30.621Z,101932.63
2022-10-31T05:32:58.102Z,101932.13
2022-10-31T05:35:26.882Z,101932.97
2022-10-31T05:37:53.705Z,101934.63
2022-10-31T05:40:22.331Z,101935.47
2022-10-31T05:42:51.973Z,101933.47
2022-10-31T05:45:20.296Z,101944.00
2022-10-31T05:47:53.024Z,101944.00
2022-10-31T05:50:20.172Z,101945.50
2022-10-31T05:52:46.926Z,101945.34
2022-10-31T05:55:16.800Z,101941.84
2022-10-31T05:57:43.521Z,101947.16
2022-10-31T06:00:10.938Z,101941.84
2022-10-31T06:02:39.552Z,101943.50
2022-10-31T06:05:11.397Z,101945.16
2022-10-31T06:07:38.562Z,101946.19
2022-10-31T06:10:07.461Z,101937.34
2022-10-31T06:12:38.528Z,101942.69
2022-10-31T06:15:06.798Z,101941.16
2022-10-31T06:17:34.417Z,101930.78
2022-10-31T06:20:01.450Z,101940.81
2022-10-31T06:22:29.541Z,101934.63
2022-10-31T06:24:56.380Z,101927.81
2022-10-31T06:27:23.570Z,101938.47
2022-10-31T06:29:50.683Z,101940.28
2022-10-31T06:32:17.636Z,101941.28
2022-10-31T06:34:44.893Z,101939.44
2022-10-31T06:37:13.156Z,101938.47
2022-10-31T06:39:41.318Z,101941.94
2022-10-31T06:42:07.924Z,101942.78
2022-10-31T06:44:34.854Z,101943.63
2022-10-31T06:47:01.587Z,101940.81
2022-10-31T06:49:28.654Z,101939.97
2022-10-31T06:51:59.430Z,101937.16
2022-10-31T06:54:26.090Z,101937.81
2022-10-31T06:56:54.142Z,101944.00
2022-10-31T06:59:20.897Z,101945.94
2022-10-31T07:01:47.866Z,101946.66
2022-10-31T07:04:14.725Z,101944.94
2022-10-31T07:06:48.258Z,101943.00
2022-10-31T07:09:20.212Z,101947.50
2022-10-31T07:11:46.814Z,101946.66
2022-10-31T07:14:14.856Z,101955.31
2022-10-31T07:16:41.499Z,101955.47
2022-10-31T07:19:08.184Z,101945.81
2022-10-31T07:21:35.038Z,101948.47
2022-10-31T07:24:06.510Z,101945.81
2022-10-31T07:26:33.344Z,101954.47
2022-10-31T07:29:00.298Z,101947.81
2022-10-31T07:31:28.363Z,101943.00
2022-10-31T07:33:55.109Z,101941.00
2022-10-31T07:36:21.913Z,101941.50
2022-10-31T07:38:48.819Z,101934.88
2022-10-31T07:41:15.475Z,101938.84
2022-10-31T07:43:42.383Z,101938.53
2022-10-31T07:46:09.208Z,101943.50
2022-10-31T07:48:37.415Z,101940.31
2022-10-31T07:51:04.182Z,101944.34
2022-10-31T07:53:36.051Z,101950.16
2022-10-31T07:56:02.861Z,101947.00
2022-10-31T07:58:29.571Z,101950.16
2022-10-31T08:00:56.401Z,101950.66
2022-10-31T08:03:23.389Z,101959.16
2022-10-31T08:05:51.413Z,101953.50
2022-10-31T08:08:18.505Z,101960.31
2022-10-31T08:10:45.324Z,101960.81
2022-10-31T08:13:14.258Z,101960.28
2022-10-31T08:15:42.876Z,101959.97
2022-10-31T08:18:14.763Z,101965.78
2022-10-31T08:20:42.256Z,101966.44
2022-10-31T08:23:12.296Z,101967.81
2022-10-31T08:25:39.272Z,101962.09
2022-10-31T08:28:07.160Z,101965.09
2022-10-31T08:30:37.820Z,101962.09
2022-10-31T08:33:06.992Z,101960.56
2022-10-31T08:35:34.485Z,101960.25
2022-10-31T08:38:02.050Z,101959.88
2022-10-31T08:40:32.368Z,101955.06
2022-10-31T08:43:03.581Z,101949.19
2022-10-31T08:45:31.813Z,101949.69
2022-10-31T08:48:00.038Z,101947.50
2022-10-31T08:50:27.819Z,101937.31
2022-10-31T08:53:09.509Z,101940.47
2022-10-31T08:55:39.618Z,101933.78
2022-10-31T08:58:07.940Z,101935.94
2022-10-31T09:00:35.694Z,101939.75
2022-10-31T09:03:05.403Z,101933.91
2022-10-31T09:05:32.420Z,101934.22
2022-10-31T09:08:00.463Z,101927.50
2022-10-31T09:10:29.065Z,101923.31
2022-10-31T09:12:58.825Z,101922.63
2022-10-31T09:15:25.929Z,101924.75
2022-10-31T09:17:53.120Z,101923.38
2022-10-31T09:20:20.193Z,101922.88
2022-10-31T09:22:47.414Z,101932.00
2022-10-31T09:25:14.546Z,101940.31
2022-10-31T09:27:41.194Z,101937.97
2022-10-31T09:30:10.565Z,101925.53
2022-10-31T09:32:37.162Z,101908.97
2022-10-31T09:35:03.930Z,101892.22
2022-10-31T09:37:30.770Z,101873.78
2022-10-31T09:39:57.695Z,101869.75
2022-10-31T09:42:46.403Z,101882.38
2022-10-31T09:45:22.830Z,101894.38
2022-10-31T09:48:09.289Z,101888.31
2022-10-31T09:50:42.583Z,101894.78
2022-10-31T09:53:16.618Z,101894.38
2022-10-31T09:55:49.043Z,101891.19
2022-10-31T09:58:21.120Z,101884.28
2022-10-31T10:00:52.658Z,101890.91
2022-10-31T10:03:29.505Z,101899.25
2022-10-31T10:06:05.415Z,101897.88
2022-10-31T10:08:35.901Z,101886.59
2022-10-31T10:11:25.699Z,101887.72
2022-10-31T10:14:15.390Z,101897.03
2022-10-31T10:16:59.911Z,101884.13
2022-10-31T10:19:40.593Z,101863.00
2022-10-31T10:22:15.770Z,101842.03
2022-10-31T10:25:00.414Z,101843.16
2022-10-31T10:27:38.675Z,101859.66
2022-10-31T10:30:15.132Z,101854.56
2022-10-31T10:32:50.945Z,101853.19
2022-10-31T10:35:25.975Z,101851.78
2022-10-31T10:38:04.081Z,101853.91
2022-10-31T10:40:31.405Z,101857.03
2022-10-31T10:43:26.302Z,101858.28
2022-10-31T10:46:35.608Z,101856.25
2022-10-31T10:49:13.284Z,101837.16
2022-10-31T10:52:18.959Z,101829.72
2022-10-31T10:54:47.838Z,101815.78
2022-10-31T10:57:36.404Z,101804.69
2022-10-31T11:00:04.539Z,101808.00
2022-10-31T11:02:33.574Z,101795.91
2022-10-31T11:05:03.063Z,101797.16
2022-10-31T11:07:38.981Z,101792.25
2022-10-31T11:10:14.003Z,101786.31
2022-10-31T11:12:41.768Z,101780.56
2022-10-31T11:15:21.684Z,101776.50
2022-10-31T11:17:52.258Z,101771.56
2022-10-31T11:20:32.636Z,101760.31
2022-10-31T11:23:06.663Z,101753.72
2022-10-31T11:25:34.016Z,101742.63
2022-10-31T11:28:01.679Z,101742.03
2022-10-31T11:30:29.444Z,101738.13
2022-10-31T11:32:58.149Z,101739.38
2022-10-31T11:35:28.672Z,101748.53
2022-10-31T11:38:01.286Z,101736.56
2022-10-31T11:40:30.541Z,101714.72
2022-10-31T11:42:59.966Z,101710.41
2022-10-31T11:45:34.945Z,101709.81
2022-10-31T11:48:03.647Z,101702.22
2022-10-31T11:50:36.220Z,101703.47
2022-10-31T11:53:04.487Z,101702.06
2022-10-31T11:55:34.138Z,101702.47
2022-10-31T11:58:01.363Z,101703.75
2022-10-31T12:00:33.574Z,101694.25
2022-10-31T12:03:13.367Z,101686.25
2022-10-31T12:05:45.871Z,101677.81
2022-10-31T12:08:14.343Z,101679.03
2022-10-31T12:10:48.031Z,101668.53
2022-10-31T12:13:34.673Z,101665.25
2022-10-31T12:16:07.629Z,101662.16
2022-10-31T12:19:00.603Z,101659.72
2022-10-31T12:21:44.339Z,101647.53
2022-10-31T12:24:26.676Z,101646.09
2022-10-31T12:27:03.352Z,101639.28
2022-10-31T12:29:44.994Z,101639.72
2022-10-31T12:32:31.730Z,101631.47
2022-10-31T12:35:17.977Z,101622.19
2022-10-31T12:38:06.052Z,101610.22
2022-10-31T12:40:52.333Z,101597.41
2022-10-31T12:43:32.560Z,101586.25
2022-10-31T12:46:01.434Z,101579.44
2022-10-31T12:48:52.656Z,101570.78
2022-10-31T12:51:29.810Z,101561.25
2022-10-31T12:54:13.617Z,101552.56
2022-10-31T12:56:49.612Z,101549.47
2022-10-31T12:59:22.900Z,101544.28
2022-10-31T13:01:55.809Z,101533.97
2022-10-31T13:04:37.541Z,101524.44
2022-10-31T13:07:09.895Z,101536.44
2022-10-31T13:09:44.110Z,101529.59
2022-10-31T13:12:14.539Z,101521.13
2022-10-31T13:14:45.603Z,101510.56
2022-10-31T13:17:22.162Z,101509.09
2022-10-31T13:19:51.494Z,101504.75
2022-10-31T13:22:27.448Z,101493.56
2022-10-31T13:25:00.750Z,101484.25
2022-10-31T13:27:32.206Z,101476.00
2022-10-31T13:30:06.751Z,101484.44
2022-10-31T13:32:40.588Z,101478.84
2022-10-31T13:35:16.184Z,101476.78
2022-10-31T13:37:54.656Z,101464.13
2022-10-31T13:40:35.272Z,101445.31
2022-10-31T13:43:10.454Z,101447.81
2022-10-31T13:45:48.435Z,101438.69
2022-10-31T13:48:21.365Z,101439.31
2022-10-31T13:50:59.484Z,101433.94
2022-10-31T13:53:38.075Z,101430.22
2022-10-31T13:56:12.510Z,101419.69
2022-10-31T13:58:39.333Z,101433.94
2022-10-31T14:01:18.559Z,101431.88
2022-10-31T14:04:10.970Z,101428.13
2022-10-31T14:06:41.486Z,101422.53
2022-10-31T14:09:23.846Z,101413.06
2022-10-31T14:11:55.627Z,101405.00
2022-10-31T14:14:29.702Z,101401.25
2022-10-31T14:16:59.042Z,101395.84
2022-10-31T14:19:27.161Z,101394.81
2022-10-31T14:21:54.073Z,101385.72
2022-10-31T14:24:33.986Z,101382.22
2022-10-31T14:27:04.251Z,101385.94
2022-10-31T14:29:32.645Z,101370.03
2022-10-31T14:32:14.425Z,101377.28
2022-10-31T14:34:43.074Z,101371.91
2022-10-31T14:37:26.542Z,101361.56
2022-10-31T14:40:06.346Z,101358.06
2022-10-31T14:42:48.461Z,101351.84
2022-10-31T14:45:26.585Z,101346.69
2022-10-31T14:48:08.205Z,101345.06
2022-10-31T14:50:47.654Z,101341.56
2022-10-31T14:53:19.439Z,101347.97
2022-10-31T14:55:50.485Z,101345.28
2022-10-31T14:58:22.671Z,101335.56
2022-10-31T15:00:51.903Z,101338.25
2022-10-31T15:03:26.567Z,101331.22
2022-10-31T15:05:57.540Z,101323.38
2022-10-31T15:08:38.756Z,101324.19
2022-10-31T15:11:12.405Z,101319.88
2022-10-31T15:13:46.500Z,101313.91
2022-10-31T15:16:15.632Z,101317.63
2022-10-31T15:18:50.024Z,101302.75
2022-10-31T15:21:17.971Z,101298.63
2022-10-31T15:23:45.537Z,101288.34
2022-10-31T15:26:19.398Z,101286.69
2022-10-31T15:28:58.051Z,101282.56
2022-10-31T15:31:24.785Z,101270.97
2022-10-31T15:33:52.594Z,101265.84
2022-10-31T15:36:24.100Z,101271.44
2022-10-31T15:38:57.087Z,101269.78
2022-10-31T15:41:35.392Z,101256.56
2022-10-31T15:44:08.469Z,101257.84
2022-10-31T15:46:35.281Z,101260.72
2022-10-31T15:49:02.076Z,101254.53
2022-10-31T15:51:35.470Z,101252.88
2022-10-31T15:54:02.530Z,101251.22
2022-10-31T15:56:31.722Z,101250.41
2022-10-31T15:59:01.420Z,101242.56
2022-10-31T16:01:31.531Z,101244.44
2022-10-31T16:04:00.773Z,101237.44
2022-10-31T16:06:27.979Z,101241.16
2022-10-31T16:08:56.270Z,101233.91
2022-10-31T16:11:26.185Z,101228.13
2022-10-31T16:13:55.669Z,101229.19
2022-10-31T16:16:38.667Z,101217.84
2022-10-31T16:19:18.768Z,101217.03
2022-10-31T16:21:46.340Z,101210.41
2022-10-31T16:24:19.942Z,101209.84
2022-10-31T16:26:51.291Z,101208.19
2022-10-31T16:29:34.168Z,101202.19
2022-10-31T16:32:01.060Z,101203.44
2022-10-31T16:34:30.461Z,101202.03
2022-10-31T16:36:57.238Z,101203.28
2022-10-31T16:39:24.052Z,101197.31
2022-10-31T16:41:53.833Z,101190.72
2022-10-31T16:44:35.985Z,101203.53
2022-10-31T16:47:11.338Z,101204.81
2022-10-31T16:49:39.918Z,101198.22
2022-10-31T16:52:08.239Z,101202.97
2022-10-31T16:54:35.283Z,101203.41
2022-10-31T16:57:05.014Z,101194.94
2022-10-31T16:59:34.351Z,101199.09
2022-10-31T17:02:02.352Z,101196.81
2022-10-31T17:04:32.647Z,101187.56
2022-10-31T17:07:00.792Z,101187.97
2022-10-31T17:09:27.474Z,101189.47
2022-10-31T17:11:55.252Z,101196.31
2022-10-31T17:14:22.228Z,101184.34
2022-10-31T17:16:49.278Z,101182.88
2022-10-31T17:19:16.847Z,101180.66
2022-10-31T17:21:43.616Z,101174.88
2022-10-31T17:24:14.955Z,101169.94
2022-10-31T17:26:44.752Z,101166.66
2022-10-31T17:29:11.562Z,101166.03
2022-10-31T17:31:39.397Z,101162.53
2022-10-31T17:34:07.273Z,101160.28
2022-10-31T17:36:34.677Z,101156.97
2022-10-31T17:39:01.846Z,101149.38
2022-10-31T17:41:34.248Z,101154.94
2022-10-31T17:44:01.125Z,101155.16
2022-10-31T17:46:28.559Z,101150.00
2022-10-31T17:48:55.742Z,101149.19
2022-10-31T17:51:22.608Z,101143.81
2022-10-31T17:53:50.863Z,101146.72
2022-10-31T17:56:18.194Z,101145.09
2022-10-31T17:58:46.427Z,101142.41
2022-10-31T18:01:15.536Z,101141.56
2022-10-31T18:03:42.721Z,101134.78
2022-10-31T18:06:10.585Z,101135.81
2022-10-31T18:08:40.867Z,101128.78
2022-10-31T18:11:09.846Z,101126.34
2022-10-31T18:13:40.465Z,101118.50
2022-10-31T18:16:10.130Z,101118.91
2022-10-31T18:18:41.764Z,101108.41
2022-10-31T18:21:08.867Z,101101.63
2022-10-31T18:23:36.551Z,101104.50
2022-10-31T18:26:03.799Z,101100.38
2022-10-31T18:28:30.549Z,101096.09
2022-10-31T18:30:58.841Z,101093.59
2022-10-31T18:33:27.627Z,101099.16
2022-10-31T18:35:54.261Z,101094.22
2022-10-31T18:38:24.190Z,101091.78
2022-10-31T18:40:51.673Z,101091.97
2022-10-31T18:43:19.065Z,101093.00
2022-10-31T18:45:48.105Z,101094.03
2022-10-31T18:48:17.470Z,101095.91
2022-10-31T18:50:46.200Z,101099.59
2022-10-31T18:53:15.349Z,101085.63
2022-10-31T18:55:45.743Z,101091.81
2022-10-31T18:58:19.345Z,101086.44
2022-10-31T19:00:46.620Z,101080.47
2022-10-31T19:03:20.730Z,101079.84
2022-10-31T19:05:54.829Z,101083.75
2022-10-31T19:08:21.988Z,101071.63
2022-10-31T19:10:51.507Z,101062.56
2022-10-31T19:13:18.406Z,101053.06
2022-10-31T19:15:45.530Z,101054.09
2022-10-31T19:18:12.243Z,101069.97
2022-10-31T19:20:40.674Z,101068.31
2022-10-31T19:23:09.044Z,101073.69
2022-10-31T19:25:36.187Z,101066.69
2022-10-31T19:28:03.516Z,101069.56
2022-10-31T19:30:30.897Z,101067.50
2022-10-31T19:32:57.651Z,101077.81
2022-10-31T19:35:25.609Z,101072.06
2022-10-31T19:37:52.918Z,101074.34
2022-10-31T19:40:21.183Z,101068.78
2022-10-31T19:42:48.658Z,101067.34
2022-10-31T19:45:15.414Z,101067.97
2022-10-31T19:47:43.106Z,101055.84
2022-10-31T19:50:10.330Z,101060.56
2022-10-31T19:52:37.057Z,101062.63
2022-10-31T19:55:04.579Z,101062.22
2022-10-31T19:57:56.658Z,101059.75
2022-10-31T20:00:25.165Z,101055.84
2022-10-31T20:02:55.132Z,101055.44
2022-10-31T20:05:24.927Z,101054.81
2022-10-31T20:07:51.834Z,101051.75
2022-10-31T20:10:18.724Z,101049.47
2022-10-31T20:12:46.840Z,101047.81
2022-10-31T20:15:13.682Z,101047.44
2022-10-31T20:17:41.444Z,101037.94
2022-10-31T20:20:09.522Z,101037.56
2022-10-31T20:22:36.986Z,101036.31
2022-10-31T20:25:05.422Z,101029.75
2022-10-31T20:27:32.844Z,101034.47
2022-10-31T20:30:01.715Z,101025.22
2022-10-31T20:32:28.869Z,101039.19
2022-10-31T20:34:55.840Z,101022.75
2022-10-31T20:37:27.379Z,101027.47
2022-10-31T20:40:01.982Z,101022.31
2022-10-31T20:42:29.055Z,101021.94
2022-10-31T20:44:55.939Z,101016.38
2022-10-31T20:47:25.855Z,101022.31
2022-10-31T20:49:53.201Z,101013.28
2022-10-31T20:52:20.350Z,101009.16
2022-10-31T20:54:47.172Z,101008.56
2022-10-31T20:57:13.894Z,100998.25
2022-10-31T20:59:40.614Z,101002.78
2022-10-31T21:02:07.403Z,101007.47
2022-10-31T21:04:36.633Z,101001.28
2022-10-31T21:07:03.859Z,101000.50
2022-10-31T21:09:30.572Z,101000.69
2022-10-31T21:11:57.446Z,100995.94
2022-10-31T21:14:24.310Z,100997.19
2022-10-31T21:16:53.301Z,100998.22
2022-10-31T21:19:20.405Z,100988.53
2022-10-31T21:21:48.946Z,100988.53
2022-10-31T21:26:52.251Z,100974.97
2022-10-31T21:29:20.260Z,100979.50
2022-10-31T21:31:48.347Z,100968.81
2022-10-31T21:34:15.862Z,100971.28
2022-10-31T21:36:43.971Z,100970.22
2022-10-31T21:39:13.932Z,100972.69
2022-10-31T21:41:42.360Z,100959.97
2022-10-31T21:44:10.132Z,100958.13
2022-10-31T21:46:39.198Z,100960.59
2022-10-31T21:49:07.099Z,100946.19
2022-10-31T21:51:36.825Z,100950.72
2022-10-31T21:54:23.110Z,100940.03
2022-10-31T21:56:51.862Z,100941.03
2022-10-31T21:59:18.403Z,100936.72
2022-10-31T22:01:45.521Z,100927.06
2022-10-31T22:04:14.330Z,100925.22
2022-10-31T22:06:40.797Z,100928.06
2022-10-31T22:09:12.137Z,100921.72
2022-10-31T22:11:39.296Z,100923.56
2022-10-31T22:14:07.982Z,100917.19
2022-10-31T22:16:36.311Z,100912.66
2022-10-31T22:19:05.867Z,100910.81
2022-10-31T22:21:37.686Z,100914.91
2022-10-31T22:24:05.223Z,100907.50
2022-10-31T22:26:36.993Z,100903.41
2022-10-31T22:29:05.257Z,100903.19
2022-10-31T22:31:34.302Z,100886.94
2022-10-31T22:34:01.266Z,100880.59
2022-10-31T22:36:29.691Z,100888.41
2022-10-31T22:38:57.923Z,100879.56
2022-10-31T22:41:27.717Z,100889.03
2022-10-31T22:43:55.433Z,100883.69
2022-10-31T22:46:24.527Z,100886.34
2022-10-31T22:48:59.919Z,100896.00
2022-10-31T22:51:29.019Z,100885.31
2022-10-31T22:53:56.790Z,100887.16
2022-10-31T22:56:26.607Z,100885.31
2022-10-31T22:58:53.960Z,100877.91
2022-10-31T23:01:22.637Z,100878.94
2022-10-31T23:03:49.740Z,100878.94
2022-10-31T23:06:20.442Z,100876.06
2022-10-31T23:08:47.967Z,100860.63
2022-10-31T23:11:19.131Z,100864.13
2022-10-31T23:14:04.713Z,100865.53
2022-10-31T23:16:31.875Z,100860.19
2022-10-31T23:18:59.068Z,100849.09
2022-10-31T23:21:46.461Z,100855.25
2022-10-31T23:24:13.298Z,100851.31
2022-10-31T23:26:59.151Z,100847.63
2022-10-31T23:29:25.862Z,100853.38
2022-10-31T23:31:54.682Z,100843.31
2022-10-31T23:34:21.977Z,100847.19
2022-10-31T23:36:50.362Z,100844.09
2022-10-31T23:39:19.993Z,100831.31
2022-10-31T23:41:50.722Z,100847.78
2022-10-31T23:44:18.090Z,100851.03
2022-10-31T23:46:45.028Z,100850.63
2022-10-31T23:49:11.935Z,100842.41
2022-10-31T23:51:39.386Z,100838.47
2022-10-31T23:54:07.936Z,100837.22
2022-10-31T23:56:36.981Z,100836.00
2022-10-31T23:59:04.162Z,100831.22
